Time,TemperatureF,DewpointF,PressureIn,WindDirection,WindDirectionDegrees,WindSpeedMPH,WindSpeedGustMPH,Humidity,HourlyPrecipIn,Conditions,Clouds,dailyrainin,SolarRadiationWatts/m^2,SoftwareType,DateUTC
2013-02-20 00:42:00,12.0,-4.0,-100.00,WNW,302,2.0,5.0,48,0.00,,,0.00,1.000000,,2013-02-20 07:42:00,
2013-02-20 00:52:00,12.0,-4.0,-100.00,WNW,302,2.0,5.0,48,0.00,,,0.00,1.000000,,2013-02-20 07:52:00,
2013-02-20 01:05:00,12.0,-4.0,-100.00,WNW,302,2.0,5.0,48,0.00,,,0.00,1.000000,,2013-02-20 08:05:00,
2013-02-20 01:11:00,12.0,-4.0,-100.00,WNW,302,2.0,5.0,48,0.00,,,0.00,1.000000,,2013-02-20 08:11:00,
2013-02-20 01:21:00,12.0,-4.0,-100.00,WNW,302,2.0,5.0,48,0.00,,,0.00,1.000000,,2013-02-20 08:21:00,
2013-02-20 01:42:00,13.0,-4.0,-100.00,WNW,296,2.0,4.0,46,0.00,,,0.00,1.000000,,2013-02-20 08:42:00,
2013-02-20 01:52:00,13.0,-4.0,-100.00,WNW,296,2.0,4.0,46,0.00,,,0.00,1.000000,,2013-02-20 08:52:00,
2013-02-20 02:01:00,13.0,-4.0,-100.00,WNW,296,2.0,4.0,46,0.00,,,0.00,1.000000,,2013-02-20 09:01:00,
2013-02-20 02:11:00,13.0,-4.0,-100.00,WNW,296,2.0,4.0,46,0.00,,,0.00,1.000000,,2013-02-20 09:11:00,
2013-02-20 02:21:00,13.0,-4.0,-100.00,WNW,296,2.0,4.0,46,0.00,,,0.00,1.000000,,2013-02-20 09:21:00,
2013-02-20 02:42:00,12.0,-4.0,-100.00,NW,309,1.0,4.0,47,0.00,,,0.00,1.000000,,2013-02-20 09:42:00,
2013-02-20 02:52:00,12.0,-4.0,-100.00,NW,309,1.0,4.0,47,0.00,,,0.00,1.000000,,2013-02-20 09:52:00,
2013-02-20 03:01:00,12.0,-4.0,-100.00,NW,309,1.0,4.0,47,0.00,,,0.00,1.000000,,2013-02-20 10:01:00,
2013-02-20 03:12:00,12.0,-4.0,-100.00,NW,309,1.0,4.0,47,0.00,,,0.00,1.000000,,2013-02-20 10:12:00,
2013-02-20 03:22:00,12.0,-4.0,-100.00,NW,309,1.0,4.0,47,0.00,,,0.00,1.000000,,2013-02-20 10:22:00,
2013-02-20 03:42:00,13.0,-3.0,-100.00,WSW,257,2.0,4.0,47,0.00,,,0.00,1.000000,,2013-02-20 10:42:00,
2013-02-20 03:52:00,13.0,-3.0,-100.00,WSW,257,2.0,4.0,47,0.00,,,0.00,1.000000,,2013-02-20 10:52:00,
2013-02-20 04:02:00,13.0,-3.0,-100.00,WSW,257,2.0,4.0,47,0.00,,,0.00,1.000000,,2013-02-20 11:02:00,
2013-02-20 04:11:00,13.0,-3.0,-100.00,WSW,257,2.0,4.0,47,0.00,,,0.00,1.000000,,2013-02-20 11:11:00,
2013-02-20 04:21:00,13.0,-3.0,-100.00,WSW,257,2.0,4.0,47,0.00,,,0.00,1.000000,,2013-02-20 11:21:00,
2013-02-20 04:42:00,13.0,-3.0,-100.00,WNW,303,0.0,3.0,47,0.00,,,0.00,1.000000,,2013-02-20 11:42:00,
2013-02-20 04:52:00,13.0,-3.0,-100.00,WNW,303,0.0,3.0,47,0.00,,,0.00,1.000000,,2013-02-20 11:52:00,
2013-02-20 05:02:00,13.0,-3.0,-100.00,WNW,303,0.0,3.0,47,0.00,,,0.00,1.000000,,2013-02-20 12:02:00,
2013-02-20 05:12:00,13.0,-3.0,-100.00,WNW,303,0.0,3.0,47,0.00,,,0.00,1.000000,,2013-02-20 12:12:00,
2013-02-20 05:21:00,13.0,-3.0,-100.00,WNW,303,0.0,3.0,47,0.00,,,0.00,1.000000,,2013-02-20 12:21:00,
2013-02-20 05:42:00,13.0,-3.0,-100.00,WNW,294,2.0,3.0,49,0.00,,,0.00,1.000000,,2013-02-20 12:42:00,
2013-02-20 05:53:00,13.0,-3.0,-100.00,WNW,294,2.0,3.0,49,0.00,,,0.00,1.000000,,2013-02-20 12:53:00,
2013-02-20 06:01:00,13.0,-3.0,-100.00,WNW,294,2.0,3.0,49,0.00,,,0.00,1.000000,,2013-02-20 13:01:00,
2013-02-20 06:11:00,13.0,-3.0,-100.00,WNW,294,2.0,3.0,49,0.00,,,0.00,1.000000,,2013-02-20 13:11:00,
2013-02-20 06:22:00,13.0,-3.0,-100.00,WNW,294,2.0,3.0,49,0.00,,,0.00,1.000000,,2013-02-20 13:22:00,
2013-02-20 06:42:00,15.0,-2.0,-100.00,SW,228,1.0,4.0,46,0.00,,,0.00,1.000000,,2013-02-20 13:42:00,
2013-02-20 06:52:00,15.0,-2.0,-100.00,SW,228,1.0,4.0,46,0.00,,,0.00,1.000000,,2013-02-20 13:52:00,
2013-02-20 07:01:00,15.0,-2.0,-100.00,SW,228,1.0,4.0,46,0.00,,,0.00,1.000000,,2013-02-20 14:01:00,
2013-02-20 07:11:00,15.0,-2.0,-100.00,SW,228,1.0,4.0,46,0.00,,,0.00,1.000000,,2013-02-20 14:11:00,
2013-02-20 07:21:00,15.0,-2.0,-100.00,SW,228,1.0,4.0,46,0.00,,,0.00,1.000000,,2013-02-20 14:21:00,
2013-02-20 07:42:00,15.0,-1.0,-100.00,NNW,330,1.0,4.0,48,0.00,,,0.00,1.000000,,2013-02-20 14:42:00,
2013-02-20 07:52:00,15.0,-1.0,-100.00,NNW,330,1.0,4.0,48,0.00,,,0.00,1.000000,,2013-02-20 14:52:00,
2013-02-20 08:01:00,15.0,-1.0,-100.00,NNW,330,1.0,4.0,48,0.00,,,0.00,1.000000,,2013-02-20 15:01:00,
2013-02-20 08:11:00,15.0,-1.0,-100.00,NNW,330,1.0,4.0,48,0.00,,,0.00,1.000000,,2013-02-20 15:11:00,
2013-02-20 08:22:00,15.0,-1.0,-100.00,NNW,330,1.0,4.0,48,0.00,,,0.00,1.000000,,2013-02-20 15:22:00,
2013-02-20 08:42:00,19.0,2.0,-100.00,NW,316,0.0,3.0,46,0.00,,,0.00,37.000000,,2013-02-20 15:42:00,
2013-02-20 08:52:00,19.0,2.0,-100.00,NW,316,0.0,3.0,46,0.00,,,0.00,37.000000,,2013-02-20 15:52:00,
2013-02-20 09:01:00,19.0,2.0,-100.00,NW,316,0.0,3.0,46,0.00,,,0.00,37.000000,,2013-02-20 16:01:00,
2013-02-20 09:12:00,19.0,2.0,-100.00,NW,316,0.0,3.0,46,0.00,,,0.00,37.000000,,2013-02-20 16:12:00,
2013-02-20 09:21:00,19.0,2.0,-100.00,NW,316,0.0,3.0,46,0.00,,,0.00,37.000000,,2013-02-20 16:21:00,
2013-02-20 09:42:00,26.0,3.0,-100.00,ENE,65,1.0,3.0,37,0.00,,,0.00,115.000000,,2013-02-20 16:42:00,
2013-02-20 10:11:00,26.0,3.0,-100.00,ENE,65,1.0,3.0,37,0.00,,,0.00,115.000000,,2013-02-20 17:11:00,
2013-02-20 10:21:00,26.0,3.0,-100.00,ENE,65,1.0,3.0,37,0.00,,,0.00,115.000000,,2013-02-20 17:21:00,
2013-02-20 10:42:00,35.0,4.0,-100.00,ENE,71,1.0,3.0,26,0.00,,,0.00,278.000000,,2013-02-20 17:42:00,
2013-02-20 11:11:00,35.0,4.0,-100.00,ENE,71,1.0,3.0,26,0.00,,,0.00,278.000000,,2013-02-20 18:11:00,
2013-02-20 11:21:00,35.0,4.0,-100.00,ENE,71,1.0,3.0,26,0.00,,,0.00,278.000000,,2013-02-20 18:21:00,
2013-02-20 11:42:00,36.0,2.0,-100.00,East,94,5.0,9.0,23,0.00,,,0.00,378.000000,,2013-02-20 18:42:00,
2013-02-20 11:52:00,36.0,2.0,-100.00,East,94,5.0,9.0,23,0.00,,,0.00,378.000000,,2013-02-20 18:52:00,
2013-02-20 12:11:00,36.0,2.0,-100.00,East,94,5.0,9.0,23,0.00,,,0.00,378.000000,,2013-02-20 19:11:00,
2013-02-20 12:21:00,36.0,2.0,-100.00,East,94,5.0,9.0,23,0.00,,,0.00,378.000000,,2013-02-20 19:21:00,
2013-02-20 12:52:00,34.0,7.0,-100.00,East,82,9.0,14.0,31,0.00,,,0.00,476.000000,,2013-02-20 19:52:00,
2013-02-20 13:01:00,34.0,7.0,-100.00,East,82,9.0,14.0,31,0.00,,,0.00,476.000000,,2013-02-20 20:01:00,
2013-02-20 13:11:00,34.0,7.0,-100.00,East,82,9.0,14.0,31,0.00,,,0.00,476.000000,,2013-02-20 20:11:00,
2013-02-20 13:21:00,34.0,7.0,-100.00,East,82,9.0,14.0,31,0.00,,,0.00,476.000000,,2013-02-20 20:21:00,
2013-02-20 13:41:00,38.0,8.0,-100.00,East,85,8.0,16.0,28,0.00,,,0.00,663.000000,,2013-02-20 20:41:00,
2013-02-20 13:52:00,38.0,8.0,-100.00,East,85,8.0,16.0,28,0.00,,,0.00,663.000000,,2013-02-20 20:52:00,
2013-02-20 14:01:00,38.0,8.0,-100.00,East,85,8.0,16.0,28,0.00,,,0.00,663.000000,,2013-02-20 21:01:00,
2013-02-20 14:11:00,38.0,8.0,-100.00,East,85,8.0,16.0,28,0.00,,,0.00,663.000000,,2013-02-20 21:11:00,
2013-02-20 14:21:00,38.0,8.0,-100.00,East,85,8.0,16.0,28,0.00,,,0.00,663.000000,,2013-02-20 21:21:00,
2013-02-20 15:43:00,35.0,6.0,-100.00,East,79,7.0,13.0,29,-99.99,,,0.00,394.000000,,2013-02-20 22:43:00,
2013-02-20 15:52:00,35.0,6.0,-100.00,East,79,7.0,13.0,29,-99.99,,,0.00,394.000000,,2013-02-20 22:52:00,
2013-02-20 16:01:00,35.0,6.0,-100.00,East,79,7.0,13.0,29,-99.99,,,0.00,394.000000,,2013-02-20 23:01:00,
2013-02-20 16:12:00,35.0,6.0,-100.00,East,79,7.0,13.0,29,-99.99,,,0.00,394.000000,,2013-02-20 23:12:00,
2013-02-20 16:22:00,35.0,6.0,-100.00,East,79,7.0,13.0,29,-99.99,,,0.00,394.000000,,2013-02-20 23:22:00,
2013-02-20 16:42:00,29.0,11.0,-100.00,ENE,76,8.0,15.0,46,0.00,,,0.00,217.000000,,2013-02-20 23:42:00,
2013-02-20 16:52:00,29.0,11.0,-100.00,ENE,76,8.0,15.0,46,0.00,,,0.00,217.000000,,2013-02-20 23:52:00,
2013-02-20 17:03:00,29.0,11.0,-100.00,ENE,76,8.0,15.0,46,0.00,,,0.00,217.000000,,2013-02-21 00:03:00,
2013-02-20 17:11:00,29.0,11.0,-100.00,ENE,76,8.0,15.0,46,0.00,,,0.00,217.000000,,2013-02-21 00:11:00,
2013-02-20 17:21:00,29.0,11.0,-100.00,ENE,76,8.0,15.0,46,0.00,,,0.00,217.000000,,2013-02-21 00:21:00,
2013-02-20 17:42:00,25.0,11.0,-100.00,ENE,68,7.0,13.0,54,0.00,,,0.00,86.000000,,2013-02-21 00:42:00,
2013-02-20 17:52:00,25.0,11.0,-100.00,ENE,68,7.0,13.0,54,0.00,,,0.00,86.000000,,2013-02-21 00:52:00,
2013-02-20 18:01:00,25.0,11.0,-100.00,ENE,68,7.0,13.0,54,0.00,,,0.00,86.000000,,2013-02-21 01:01:00,
2013-02-20 18:11:00,25.0,11.0,-100.00,ENE,68,7.0,13.0,54,0.00,,,0.00,86.000000,,2013-02-21 01:11:00,
2013-02-20 18:21:00,25.0,11.0,-100.00,ENE,68,7.0,13.0,54,0.00,,,0.00,86.000000,,2013-02-21 01:21:00,
2013-02-20 18:42:00,24.0,13.0,-100.00,ENE,69,5.0,11.0,61,0.00,,,0.00,11.000000,,2013-02-21 01:42:00,
2013-02-20 18:52:00,24.0,13.0,-100.00,ENE,69,5.0,11.0,61,0.00,,,0.00,11.000000,,2013-02-21 01:52:00,
2013-02-20 19:01:00,24.0,13.0,-100.00,ENE,69,5.0,11.0,61,0.00,,,0.00,11.000000,,2013-02-21 02:01:00,
2013-02-20 19:11:00,24.0,13.0,-100.00,ENE,69,5.0,11.0,61,0.00,,,0.00,11.000000,,2013-02-21 02:11:00,
2013-02-20 19:21:00,24.0,13.0,-100.00,ENE,69,5.0,11.0,61,0.00,,,0.00,11.000000,,2013-02-21 02:21:00,
2013-02-20 20:02:00,21.0,16.0,-100.00,ENE,71,6.0,10.0,82,0.00,,,0.00,1.000000,,2013-02-21 03:02:00,
2013-02-20 20:12:00,21.0,16.0,-100.00,ENE,71,6.0,10.0,82,0.00,,,0.00,1.000000,,2013-02-21 03:12:00,
2013-02-20 20:21:00,21.0,16.0,-100.00,ENE,71,6.0,10.0,82,0.00,,,0.00,1.000000,,2013-02-21 03:21:00,
2013-02-20 20:42:00,20.0,17.0,-100.00,East,85,4.0,10.0,89,0.00,,,0.00,1.000000,,2013-02-21 03:42:00,
2013-02-20 20:52:00,20.0,17.0,-100.00,East,85,4.0,10.0,89,0.00,,,0.00,1.000000,,2013-02-21 03:52:00,
2013-02-20 21:01:00,20.0,17.0,-100.00,East,85,4.0,10.0,89,0.00,,,0.00,1.000000,,2013-02-21 04:01:00,
2013-02-20 21:11:00,20.0,17.0,-100.00,East,85,4.0,10.0,89,0.00,,,0.00,1.000000,,2013-02-21 04:11:00,
2013-02-20 21:21:00,20.0,17.0,-100.00,East,85,4.0,10.0,89,0.00,,,0.00,1.000000,,2013-02-21 04:21:00,
2013-02-20 21:42:00,19.0,16.0,-100.00,NE,52,3.0,7.0,87,0.00,,,0.00,1.000000,,2013-02-21 04:42:00,
2013-02-20 21:52:00,19.0,16.0,-100.00,NE,52,3.0,7.0,87,0.00,,,0.00,1.000000,,2013-02-21 04:52:00,
2013-02-20 22:02:00,19.0,16.0,-100.00,NE,52,3.0,7.0,87,0.00,,,0.00,1.000000,,2013-02-21 05:02:00,
2013-02-20 22:12:00,19.0,16.0,-100.00,NE,52,3.0,7.0,87,0.00,,,0.00,1.000000,,2013-02-21 05:12:00,
2013-02-20 22:22:00,19.0,16.0,-100.00,NE,52,3.0,7.0,87,0.00,,,0.00,1.000000,,2013-02-21 05:22:00,
2013-02-20 22:46:00,19.0,16.0,-100.00,SSE,154,0.0,3.0,89,0.00,,,0.00,1.000000,,2013-02-21 05:46:00,
2013-02-20 23:00:00,19.0,16.0,-100.00,SSE,154,0.0,3.0,89,0.00,,,0.00,1.000000,,2013-02-21 06:00:00,
2013-02-20 23:11:00,19.0,16.0,-100.00,SSE,154,0.0,3.0,89,0.00,,,0.00,1.000000,,2013-02-21 06:11:00,
2013-02-20 23:21:00,19.0,16.0,-100.00,SSE,154,0.0,3.0,89,0.00,,,0.00,1.000000,,2013-02-21 06:21:00,
2013-02-20 23:42:00,18.0,15.0,-100.00,East,80,0.0,4.0,87,0.00,,,0.00,1.000000,,2013-02-21 06:42:00,
2013-02-20 23:51:00,18.0,15.0,-100.00,East,80,0.0,4.0,87,0.00,,,0.00,1.000000,,2013-02-21 06:51:00,